Time;durP1;ratioP1;P1;durP2;ratioP2;P2;SDS_P1;SDS_P2;PMS_P1;PMS_P2;Temp;Humidity;BMP_temperature;BMP_pressure;BME280_temperature;BME280_humidity;BME280_pressure;Samples;Min_cycle;Max_cycle;Signal;HPM_P1;HPM_P2
2023/12/26 00:01:46;;;;;;;19.85;16.55;;;;;;;5.00;66.95;95042.06;5116636;28;20647;-76
2023/12/26 00:04:18;;;;;;;20.90;18.38;;;;;;;4.99;67.29;95042.38;5116708;28;20296;-76
2023/12/26 00:06:46;;;;;;;19.02;16.88;;;;;;;4.94;67.88;95040.63;5115610;28;20257;-76
2023/12/26 00:09:14;;;;;;;19.10;16.88;;;;;;;4.96;67.82;95051.22;5115657;28;20196;-76
2023/12/26 00:11:47;;;;;;;21.00;17.30;;;;;;;4.92;67.79;95042.03;5116533;28;20524;-76
2023/12/26 00:14:17;;;;;;;18.10;16.02;;;;;;;4.92;67.80;95042.03;5116431;28;20280;-76
2023/12/26 00:16:45;;;;;;;21.98;16.85;;;;;;;4.92;67.77;95031.91;5115476;28;20227;-76
2023/12/26 00:19:15;;;;;;;21.95;18.10;;;;;;;4.87;67.57;95039.47;5116299;28;20203;-76
2023/12/26 00:21:42;;;;;;;22.92;20.52;;;;;;;4.70;67.86;95043.75;5115608;28;20260;-76
2023/12/26 00:24:09;;;;;;;26.95;21.92;;;;;;;4.56;68.15;95059.44;5116594;28;20184;-76
2023/12/26 00:26:39;;;;;;;24.33;21.70;;;;;;;4.53;68.49;95060.06;5116402;28;20214;-76
2023/12/26 00:29:06;;;;;;;24.02;18.85;;;;;;;4.61;68.38;95055.75;5116962;28;20294;-76
2023/12/26 00:31:34;;;;;;;21.75;17.98;;;;;;;4.69;68.21;95064.00;5116410;28;20222;-76
2023/12/26 00:34:02;;;;;;;19.77;16.42;;;;;;;4.80;67.90;95057.13;5116395;28;20184;-76
2023/12/26 00:36:31;;;;;;;19.50;17.27;;;;;;;4.86;67.70;95059.69;5116248;28;20558;-76
2023/12/26 00:38:59;;;;;;;23.20;17.25;;;;;;;4.88;68.15;95063.75;5115421;28;20247;-76
2023/12/26 00:41:29;;;;;;;18.98;16.98;;;;;;;4.89;67.58;95068.06;5116624;28;20275;-76
2023/12/26 00:43:57;;;;;;;21.48;16.58;;;;;;;4.93;67.52;95069.03;5116019;28;20184;-76
2023/12/26 00:46:28;;;;;;;19.58;16.75;;;;;;;5.00;67.45;95061.19;5116433;28;20213;-76
2023/12/26 00:49:02;;;;;;;18.85;16.50;;;;;;;5.09;67.06;95068.63;5115427;28;20211;-76
2023/12/26 00:51:30;;;;;;;18.15;16.25;;;;;;;5.16;67.01;95067.03;5115116;28;20217;-76
2023/12/26 00:53:59;;;;;;;21.77;17.35;;;;;;;5.15;67.05;95070.06;5115487;28;20290;-76
2023/12/26 00:56:30;;;;;;;19.25;17.10;;;;;;;4.97;67.57;95072.75;5114746;28;20543;-76
2023/12/26 00:59:01;;;;;;;19.85;17.75;;;;;;;4.88;67.68;95091.06;5115082;28;20224;-76
2023/12/26 01:01:28;;;;;;;20.08;17.90;;;;;;;4.81;67.29;95080.59;5115720;28;20199;-76
2023/12/26 01:03:57;;;;;;;19.27;17.02;;;;;;;4.81;67.92;95086.06;5116253;28;20639;-76
2023/12/26 01:06:25;;;;;;;19.02;16.20;;;;;;;4.89;68.54;95084.47;5127754;27;20263;-76
2023/12/26 01:08:55;;;;;;;19.42;16.83;;;;;;;4.94;68.39;95086.25;5157206;27;20181;-76
2023/12/26 01:11:23;;;;;;;20.80;18.30;;;;;;;4.82;68.76;95084.94;5156803;27;20190;-76
2023/12/26 01:13:50;;;;;;;21.20;18.13;;;;;;;4.58;68.06;95084.53;5139490;27;20259;-76
2023/12/26 01:16:22;;;;;;;21.73;17.83;;;;;;;4.47;68.54;95086.72;5156727;27;20178;-76
2023/12/26 01:18:51;;;;;;;21.98;17.38;;;;;;;4.51;68.95;95081.44;5156972;27;20255;-76
2023/12/26 01:21:21;;;;;;;20.52;17.40;;;;;;;4.56;69.25;95084.00;5139371;27;20205;-76
2023/12/26 01:23:48;;;;;;;18.98;17.08;;;;;;;4.55;68.92;95077.75;5156635;27;20194;-76
2023/12/26 01:26:16;;;;;;;20.05;17.67;;;;;;;4.54;68.94;95075.34;5156637;27;20186;-76
2023/12/26 01:28:44;;;;;;;19.25;17.25;;;;;;;4.43;69.40;95072.09;5139545;27;20234;-76
2023/12/26 01:31:11;;;;;;;18.65;16.70;;;;;;;4.40;69.57;95077.38;5139582;27;20205;-76
2023/12/26 01:33:39;;;;;;;18.80;16.75;;;;;;;4.40;69.91;95083.63;5156990;27;20178;-76
2023/12/26 01:36:07;;;;;;;18.88;15.02;;;;;;;4.46;69.61;95084.28;5157168;27;20194;-76
2023/12/26 01:38:38;;;;;;;17.63;15.77;;;;;;;4.40;69.50;95082.81;5157168;27;20202;-76
2023/12/26 01:41:06;;;;;;;17.75;15.95;;;;;;;4.26;69.27;95080.97;5156613;27;20177;-76
2023/12/26 01:43:37;;;;;;;17.75;15.70;;;;;;;4.20;69.83;95087.69;5139058;27;20203;-76
2023/12/26 01:46:04;;;;;;;17.38;15.57;;;;;;;4.22;70.07;95077.25;5139458;27;20201;-76
2023/12/26 01:48:34;;;;;;;18.30;16.50;;;;;;;4.25;69.69;95078.56;5157105;27;20171;-76
2023/12/26 01:51:04;;;;;;;17.90;14.45;;;;;;;4.29;69.34;95074.91;5138836;27;20186;-76
2023/12/26 01:53:33;;;;;;;15.88;13.73;;;;;;;4.32;69.32;95076.16;5156689;27;20183;-76
2023/12/26 01:56:08;;;;;;;15.40;13.80;;;;;;;4.32;68.88;95082.47;5156993;27;20220;-76
2023/12/26 01:58:35;;;;;;;15.25;13.35;;;;;;;4.28;68.75;95083.38;5156545;27;20251;-76
2023/12/26 02:01:03;;;;;;;17.35;14.77;;;;;;;4.24;69.44;95088.66;5156604;27;20194;-76
2023/12/26 02:03:32;;;;;;;17.30;15.35;;;;;;;4.25;69.76;95079.38;5156401;27;20170;-76
2023/12/26 02:06:02;;;;;;;15.70;14.10;;;;;;;4.26;69.04;95075.50;5138626;27;20612;-76
2023/12/26 02:08:34;;;;;;;16.33;14.65;;;;;;;4.24;69.32;95074.22;5142368;27;20190;-76
2023/12/26 02:11:03;;;;;;;16.52;13.88;;;;;;;4.20;69.56;95075.94;5160311;27;20259;-76
2023/12/26 02:13:34;;;;;;;15.43;13.73;;;;;;;4.19;69.65;95071.63;5142134;27;20288;-76
2023/12/26 02:16:11;;;;;;;17.00;14.18;;;;;;;4.13;69.89;95089.22;5160371;27;20182;-76
2023/12/26 02:18:41;;;;;;;16.30;13.82;;;;;;;3.97;69.57;95080.63;5141808;27;20214;-76
2023/12/26 02:21:08;;;;;;;15.88;14.18;;;;;;;3.91;70.07;95079.94;5160005;27;20186;-76
2023/12/26 02:23:36;;;;;;;15.35;13.88;;;;;;;3.91;70.56;95090.84;5142619;27;20206;-76
2023/12/26 02:26:07;;;;;;;15.65;13.93;;;;;;;3.94;70.25;95087.50;5141989;27;20183;-76
2023/12/26 02:28:37;;;;;;;15.25;13.68;;;;;;;3.98;70.29;95079.50;5159618;27;20262;-76
2023/12/26 02:31:05;;;;;;;15.57;12.82;;;;;;;4.05;69.82;95079.88;5159926;27;20182;-76
2023/12/26 02:33:34;;;;;;;14.32;12.82;;;;;;;4.12;70.15;95080.25;5141859;27;20187;-76
2023/12/26 02:36:02;;;;;;;14.80;12.82;;;;;;;4.13;70.08;95076.38;5160409;27;20189;-76
2023/12/26 02:38:33;;;;;;;14.23;12.90;;;;;;;4.08;69.54;95080.06;5159117;27;20222;-76
2023/12/26 02:41:01;;;;;;;14.18;12.70;;;;;;;4.02;69.98;95077.75;5141772;27;20218;-76
2023/12/26 02:43:30;;;;;;;14.57;13.18;;;;;;;4.00;70.14;95085.47;5141879;27;20194;-76
2023/12/26 02:45:59;;;;;;;14.57;12.38;;;;;;;4.00;70.52;95085.47;5159962;27;20206;-76
2023/12/26 02:48:26;;;;;;;13.57;12.15;;;;;;;4.00;70.15;95090.94;5159873;27;20306;-76
2023/12/26 02:50:53;;;;;;;16.58;13.55;;;;;;;3.99;70.52;95094.75;5159741;27;20209;-76
2023/12/26 02:53:25;;;;;;;14.30;12.77;;;;;;;3.82;70.17;95090.00;5159699;27;20261;-76
2023/12/26 02:55:53;;;;;;;15.65;13.35;;;;;;;3.74;70.32;95093.44;5141404;27;20690;-76
2023/12/26 02:58:20;;;;;;;15.50;12.60;;;;;;;3.75;70.51;95100.53;5141580;27;20275;-76
2023/12/26 03:00:51;;;;;;;14.63;12.80;;;;;;;3.78;70.57;95095.25;5159819;27;20281;-76
2023/12/26 03:03:21;;;;;;;14.75;12.48;;;;;;;3.79;70.62;95099.59;5141370;27;20202;-76
2023/12/26 03:05:48;;;;;;;14.38;12.88;;;;;;;3.78;70.39;95098.00;5138901;27;20217;-75
2023/12/26 03:08:23;;;;;;;14.77;12.85;;;;;;;3.81;70.66;95104.72;5159125;27;20178;-77
2023/12/26 03:10:50;;;;;;;13.00;10.90;;;;;;;3.83;70.58;95105.25;5141161;27;20641;-76
2023/12/26 03:13:20;;;;;;;12.88;11.57;;;;;;;3.81;70.69;95102.00;5141264;27;20206;-76
2023/12/26 03:15:49;;;;;;;13.70;12.02;;;;;;;3.79;71.23;95102.31;5141046;27;20203;-76
2023/12/26 03:18:29;;;;;;;13.93;12.52;;;;;;;3.80;71.21;95106.66;5158583;27;20300;-76
2023/12/26 03:20:56;;;;;;;15.05;12.52;;;;;;;3.68;71.46;95097.44;5159194;27;20206;-76
2023/12/26 03:23:23;;;;;;;14.75;12.40;;;;;;;3.55;71.47;95102.59;5140909;27;20215;-76
2023/12/26 03:25:50;;;;;;;14.35;12.15;;;;;;;3.55;71.71;95101.78;5141140;27;20194;-76
2023/12/26 03:28:20;;;;;;;13.85;12.15;;;;;;;3.57;71.58;95094.13;5158686;27;20179;-76
2023/12/26 03:30:47;;;;;;;13.85;12.32;;;;;;;3.61;71.62;95108.75;5140686;27;20205;-76
2023/12/26 03:33:20;;;;;;;14.40;12.07;;;;;;;3.57;71.80;95119.47;5140711;27;20194;-76
2023/12/26 03:35:47;;;;;;;14.38;12.68;;;;;;;3.46;71.31;95123.53;5158901;27;20326;-76
2023/12/26 03:38:17;;;;;;;13.27;11.90;;;;;;;3.38;71.53;95125.06;5159152;27;20283;-76
2023/12/26 03:40:47;;;;;;;13.35;11.95;;;;;;;3.42;71.72;95119.00;5158684;27;20174;-76
2023/12/26 03:43:16;;;;;;;13.25;11.88;;;;;;;3.47;71.66;95124.34;5140168;27;20247;-76
2023/12/26 03:45:44;;;;;;;13.65;11.85;;;;;;;3.47;71.67;95125.16;5140972;27;20209;-76
2023/12/26 03:48:16;;;;;;;14.05;11.57;;;;;;;3.49;71.46;95122.13;5158404;27;20170;-76
2023/12/26 03:50:47;;;;;;;12.70;11.02;;;;;;;3.52;71.32;95127.78;5158662;27;20197;-76
2023/12/26 03:53:15;;;;;;;11.85;10.13;;;;;;;3.53;71.25;95117.69;5140676;27;20183;-76
2023/12/26 03:55:43;;;;;;;11.73;10.52;;;;;;;3.53;71.48;95118.47;5158659;27;20213;-76
2023/12/26 03:58:12;;;;;;;14.15;10.73;;;;;;;3.53;71.17;95115.75;5158914;27;20218;-76
2023/12/26 04:00:39;;;;;;;11.95;10.70;;;;;;;3.54;71.49;95117.34;5139741;27;20262;-76
2023/12/26 04:03:08;;;;;;;11.32;10.02;;;;;;;3.56;71.09;95112.41;5141037;27;20502;-76
2023/12/26 04:05:38;;;;;;;11.50;10.30;;;;;;;3.50;71.65;95118.28;5140644;27;20202;-76
2023/12/26 04:08:10;;;;;;;11.80;10.60;;;;;;;3.38;71.62;95127.00;5120882;27;20286;-76
2023/12/26 04:10:37;;;;;;;11.57;10.38;;;;;;;3.33;71.65;95122.44;5137781;27;20208;-76
2023/12/26 04:13:07;;;;;;;12.73;10.15;;;;;;;3.22;71.38;95120.25;5137232;27;20199;-76
2023/12/26 04:15:38;;;;;;;11.35;10.25;;;;;;;3.22;71.81;95125.69;5119761;27;20258;-76
2023/12/26 04:18:07;;;;;;;13.20;9.75;;;;;;;3.25;72.50;95123.16;5120584;27;20209;-76
2023/12/26 04:20:36;;;;;;;10.38;9.27;;;;;;;3.29;71.81;95134.28;5138096;27;20183;-76
2023/12/26 04:23:03;;;;;;;9.63;8.73;;;;;;;3.33;71.91;95129.81;5120062;27;20203;-76
2023/12/26 04:25:32;;;;;;;11.52;9.57;;;;;;;3.33;71.71;95133.34;5119105;27;20203;-76
2023/12/26 04:27:59;;;;;;;10.35;9.35;;;;;;;3.36;71.53;95134.66;5137268;27;20209;-76
2023/12/26 04:30:27;;;;;;;12.02;9.52;;;;;;;3.41;71.67;95141.91;5119443;27;20525;-76
2023/12/26 04:32:54;;;;;;;10.95;9.82;;;;;;;3.41;71.47;95139.19;5119941;27;20187;-76
2023/12/26 04:35:26;;;;;;;11.18;9.30;;;;;;;3.44;71.45;95136.66;5120091;27;20251;-76
2023/12/26 04:37:53;;;;;;;12.07;10.00;;;;;;;3.41;71.06;95152.81;5120060;27;20195;-76
2023/12/26 04:40:22;;;;;;;13.27;11.27;;;;;;;3.32;71.44;95145.38;5119349;27;20227;-76
2023/12/26 04:42:54;;;;;;;12.15;10.65;;;;;;;3.16;71.84;95146.81;5119639;27;20206;-76
2023/12/26 04:45:22;;;;;;;12.65;10.77;;;;;;;3.08;71.86;95142.84;5102793;27;20226;-76
2023/12/26 04:47:50;;;;;;;11.45;10.35;;;;;;;3.09;72.11;95149.13;5118843;27;20202;-76
2023/12/26 04:50:19;;;;;;;10.80;9.70;;;;;;;3.12;72.20;95148.50;5118812;27;20202;-76
2023/12/26 04:52:50;;;;;;;11.30;10.20;;;;;;;3.12;71.70;95148.50;5136625;27;20199;-76
2023/12/26 04:55:18;;;;;;;12.20;10.35;;;;;;;3.13;71.99;95150.94;5136595;27;20202;-76
2023/12/26 04:57:45;;;;;;;11.57;10.48;;;;;;;3.13;72.43;95148.22;5119635;27;20202;-76
2023/12/26 05:00:15;;;;;;;12.18;10.27;;;;;;;3.19;72.88;95157.09;5122055;27;20210;-76
2023/12/26 05:02:42;;;;;;;13.70;10.93;;;;;;;3.21;72.48;95154.88;5121117;27;20604;-76
2023/12/26 05:05:13;;;;;;;11.90;10.70;;;;;;;3.12;72.75;95151.22;5116643;28;20207;-76
2023/12/26 05:07:41;;;;;;;13.30;11.20;;;;;;;3.08;72.35;95144.78;5116383;27;20320;-76
2023/12/26 05:10:08;;;;;;;14.13;12.73;;;;;;;2.95;72.14;95146.41;5119201;27;20248;-76
2023/12/26 05:12:38;;;;;;;13.55;12.15;;;;;;;2.82;72.35;95141.75;5118286;27;20214;-76
2023/12/26 05:15:07;;;;;;;12.13;10.93;;;;;;;2.82;72.88;95133.59;5136124;27;20248;-76
2023/12/26 05:17:40;;;;;;;13.63;11.50;;;;;;;2.88;73.05;95135.91;5118612;28;20198;-76
2023/12/26 05:20:08;;;;;;;13.40;12.05;;;;;;;2.83;73.45;95138.75;5135995;27;20245;-76
2023/12/26 05:22:41;;;;;;;14.40;12.80;;;;;;;2.74;73.02;95129.66;5117778;28;20207;-76
2023/12/26 05:25:11;;;;;;;14.65;13.15;;;;;;;2.72;72.51;95128.31;5136329;28;20238;-76
2023/12/26 05:27:42;;;;;;;13.40;11.88;;;;;;;2.76;73.20;95137.50;5136037;28;20614;-76
2023/12/26 05:30:10;;;;;;;15.65;14.07;;;;;;;2.81;72.94;95137.44;5136485;28;20248;-76
2023/12/26 05:32:41;;;;;;;15.95;14.35;;;;;;;2.84;72.55;95129.44;5117906;28;20206;-76
2023/12/26 05:35:10;;;;;;;15.50;13.68;;;;;;;2.89;73.17;95139.44;5136109;28;20194;-76
2023/12/26 05:37:40;;;;;;;15.77;13.45;;;;;;;2.87;72.72;95138.94;5136156;28;20187;-76
2023/12/26 05:40:08;;;;;;;14.73;13.13;;;;;;;2.82;72.41;95141.75;5119825;27;20318;-76
2023/12/26 05:42:38;;;;;;;13.95;12.55;;;;;;;2.82;73.16;95142.56;5122213;27;20195;-76
2023/12/26 05:45:07;;;;;;;15.32;12.98;;;;;;;2.84;72.62;95140.34;5140072;27;20183;-76
2023/12/26 05:47:34;;;;;;;16.38;13.00;;;;;;;2.86;72.80;95142.75;5139719;27;20219;-76
2023/12/26 05:50:05;;;;;;;14.98;13.23;;;;;;;2.83;72.12;95148.81;5140489;27;20183;-76
2023/12/26 05:52:33;;;;;;;17.05;14.63;;;;;;;2.87;72.76;95144.41;5122324;27;20195;-76
2023/12/26 05:55:02;;;;;;;19.33;15.75;;;;;;;2.94;73.52;95143.97;5122518;27;20207;-76
2023/12/26 05:57:32;;;;;;;16.58;14.88;;;;;;;2.93;73.31;95145.88;5139625;27;20183;-76
2023/12/26 05:59:59;;;;;;;17.58;14.90;;;;;;;2.83;72.65;95144.19;5139913;27;20235;-76
2023/12/26 06:02:28;;;;;;;18.30;16.40;;;;;;;2.71;72.58;95148.50;5139708;27;20224;-76
2023/12/26 06:04:56;;;;;;;21.52;16.95;;;;;;;2.57;72.49;95145.75;5122167;27;20206;-76
2023/12/26 06:07:26;;;;;;;19.98;16.88;;;;;;;2.50;73.36;95151.59;5121494;27;20230;-76
2023/12/26 06:09:53;;;;;;;21.67;16.83;;;;;;;2.52;72.84;95154.03;5121964;27;20243;-76
2023/12/26 06:12:20;;;;;;;19.63;16.95;;;;;;;2.51;72.97;95158.69;5139446;27;20194;-76
2023/12/26 06:14:50;;;;;;;18.75;15.75;;;;;;;2.59;73.69;95162.63;5121336;27;20191;-76
2023/12/26 06:17:19;;;;;;;17.58;14.85;;;;;;;2.64;73.78;95165.22;5139632;27;20217;-77
2023/12/26 06:19:46;;;;;;;17.77;15.55;;;;;;;2.69;73.16;95165.16;5122338;27;20203;-76
2023/12/26 06:22:14;;;;;;;17.17;14.95;;;;;;;2.74;73.33;95166.97;5121474;27;20223;-76
2023/12/26 06:24:44;;;;;;;17.42;15.20;;;;;;;2.78;73.49;95166.06;5121548;27;20231;-76
2023/12/26 06:27:13;;;;;;;15.65;13.25;;;;;;;2.79;73.26;95158.69;5139747;27;20186;-76
2023/12/26 06:29:43;;;;;;;17.85;14.55;;;;;;;2.79;72.92;95173.13;5121588;27;20199;-76
2023/12/26 06:32:13;;;;;;;17.17;14.60;;;;;;;2.84;73.14;95172.25;5121832;27;20206;-76
2023/12/26 06:34:41;;;;;;;17.55;14.10;;;;;;;2.88;72.91;95167.81;5138942;27;20199;-76
2023/12/26 06:37:10;;;;;;;22.30;15.20;;;;;;;2.88;72.36;95170.53;5121539;27;20201;-76
2023/12/26 06:39:40;;;;;;;19.45;14.65;;;;;;;2.88;72.82;95176.78;5139622;27;20222;-76
2023/12/26 06:42:11;;;;;;;19.90;14.40;;;;;;;2.93;72.55;95177.78;5121094;27;20179;-76
2023/12/26 06:44:40;;;;;;;16.65;14.00;;;;;;;2.96;72.88;95175.25;5121421;27;20206;-76
2023/12/26 06:47:07;;;;;;;21.40;15.65;;;;;;;2.93;72.99;95175.88;5121562;27;20197;-76
2023/12/26 06:49:34;;;;;;;17.25;15.00;;;;;;;2.88;73.35;95173.25;5139620;27;20207;-76
2023/12/26 06:52:02;;;;;;;20.25;15.05;;;;;;;2.91;73.31;95169.94;5138444;27;20206;-76
2023/12/26 06:54:32;;;;;;;18.48;14.68;;;;;;;2.97;73.34;95178.78;5138364;27;20248;-76
2023/12/26 06:57:07;;;;;;;19.05;14.88;;;;;;;2.96;73.38;95178.00;5121296;27;20199;-76
2023/12/26 06:59:35;;;;;;;18.40;14.52;;;;;;;2.99;72.82;95180.13;5120693;27;20229;-76
2023/12/26 07:02:02;;;;;;;20.33;16.33;;;;;;;3.02;73.29;95181.44;5120660;27;20203;-76
2023/12/26 07:04:32;;;;;;;21.25;15.45;;;;;;;3.07;73.11;95184.06;5121198;27;20218;-76
2023/12/26 07:06:59;;;;;;;17.75;13.55;;;;;;;3.12;73.55;95182.03;5136408;27;20230;-76
2023/12/26 07:09:30;;;;;;;16.67;13.98;;;;;;;3.17;72.88;95193.94;5138869;27;20213;-76
2023/12/26 07:11:58;;;;;;;18.92;15.05;;;;;;;3.24;72.91;95189.72;5138681;27;20183;-76
2023/12/26 07:14:26;;;;;;;20.10;14.93;;;;;;;3.31;73.07;95197.50;5136523;27;20214;-76
2023/12/26 07:16:57;;;;;;;21.95;15.93;;;;;;;3.38;72.95;95195.16;5138760;27;20252;-76
2023/12/26 07:19:27;;;;;;;19.25;15.30;;;;;;;3.47;72.74;95196.03;5138386;27;20286;-76
2023/12/26 07:21:57;;;;;;;20.25;15.30;;;;;;;3.59;72.81;95206.44;5137568;27;20194;-76
2023/12/26 07:24:25;;;;;;;17.05;15.23;;;;;;;3.70;72.67;95196.91;5138445;27;20218;-76
2023/12/26 07:26:52;;;;;;;19.48;15.00;;;;;;;3.84;73.06;95208.59;5136566;27;20279;-76
2023/12/26 07:29:23;;;;;;;18.08;15.40;;;;;;;3.93;72.27;95200.53;5137265;27;20203;-76
2023/12/26 07:31:53;;;;;;;19.80;15.40;;;;;;;4.07;72.61;95205.94;5137207;27;20203;-76
2023/12/26 07:34:21;;;;;;;19.08;16.48;;;;;;;4.24;72.30;95205.25;5137989;27;20207;-76
2023/12/26 07:36:50;;;;;;;18.23;15.82;;;;;;;4.44;71.96;95207.50;5137285;27;20195;-76
2023/12/26 07:39:18;;;;;;;18.85;16.52;;;;;;;4.62;71.63;95205.72;5137724;27;20183;-76
2023/12/26 07:41:47;;;;;;;18.15;16.13;;;;;;;4.81;71.52;95205.50;5137964;27;20194;-76
2023/12/26 07:44:16;;;;;;;17.58;15.70;;;;;;;4.99;71.08;95195.47;5137613;27;20183;-76
2023/12/26 07:46:44;;;;;;;17.92;16.05;;;;;;;5.20;70.98;95199.25;5136955;27;20198;-77
2023/12/26 07:49:12;;;;;;;19.30;16.48;;;;;;;5.35;70.19;95195.28;5138011;27;20191;-76
2023/12/26 07:51:46;;;;;;;19.77;16.98;;;;;;;5.52;69.20;95200.81;5137959;27;20179;-75
2023/12/26 07:54:15;;;;;;;18.02;16.15;;;;;;;5.70;69.40;95203.59;5137399;27;20203;-75
2023/12/26 07:56:44;;;;;;;21.13;18.40;;;;;;;5.91;68.67;95201.06;5136842;27;20243;-75
2023/12/26 07:59:11;;;;;;;18.98;16.98;;;;;;;6.08;67.99;95203.84;5137728;27;20179;-75
2023/12/26 08:01:39;;;;;;;25.90;23.20;;;;;;;6.18;67.48;95205.47;5137442;27;20183;-75
2023/12/26 08:04:07;;;;;;;27.83;24.92;;;;;;;6.30;67.22;95202.88;5136933;27;20206;-75
2023/12/26 08:06:35;;;;;;;37.25;33.03;;;;;;;6.45;66.98;95202.41;5136398;27;20231;-75
2023/12/26 08:09:06;;;;;;;44.17;39.63;;;;;;;6.62;66.82;95198.03;5136290;27;20209;-75
2023/12/26 08:11:36;;;;;;;43.38;38.90;;;;;;;6.80;66.21;95207.06;5137124;27;20199;-75
2023/12/26 08:14:04;;;;;;;47.60;42.88;;;;;;;6.96;66.01;95208.94;5137816;27;20190;-75
2023/12/26 08:16:33;;;;;;;60.75;54.40;;;;;;;7.12;65.94;95198.25;5136576;27;20206;-75
2023/12/26 08:19:02;;;;;;;69.20;62.15;;;;;;;7.23;65.32;95205.00;5136664;27;20198;-75
2023/12/26 08:21:29;;;;;;;66.75;59.80;;;;;;;7.31;64.85;95197.06;5136256;27;20217;-75
2023/12/26 08:23:59;;;;;;;66.60;59.40;;;;;;;7.43;65.00;95197.97;5135384;27;20267;-75
2023/12/26 08:26:36;;;;;;;63.28;56.90;;;;;;;7.52;64.02;95203.44;5135899;27;20656;-75
2023/12/26 08:29:03;;;;;;;59.90;53.78;;;;;;;7.60;63.93;95202.56;5137020;27;20217;-75
2023/12/26 08:31:31;;;;;;;51.25;46.20;;;;;;;7.70;63.63;95207.69;5136428;27;20218;-75
2023/12/26 08:33:57;;;;;;;44.13;39.42;;;;;;;7.80;63.30;95205.69;5136103;27;20195;-75
2023/12/26 08:36:26;;;;;;;37.60;33.70;;;;;;;7.92;63.39;95203.06;5136880;27;20191;-75
2023/12/26 08:38:57;;;;;;;36.25;32.40;;;;;;;8.07;62.90;95209.91;5136508;27;20210;-75
2023/12/26 08:41:24;;;;;;;35.33;31.13;;;;;;;8.18;62.42;95205.63;5136754;27;20203;-75
2023/12/26 08:43:56;;;;;;;35.10;31.33;;;;;;;8.29;62.49;95195.84;5136484;27;20208;-75
2023/12/26 08:46:24;;;;;;;34.95;31.20;;;;;;;8.44;61.61;95202.69;5137372;27;20199;-76
2023/12/26 08:48:52;;;;;;;34.65;31.10;;;;;;;8.52;60.83;95198.28;5135991;27;20275;-75
2023/12/26 08:51:22;;;;;;;33.65;30.25;;;;;;;8.60;60.47;95198.19;5136778;27;20195;-75
2023/12/26 08:53:52;;;;;;;33.47;30.10;;;;;;;8.76;59.96;95194.84;5136057;27;20191;-75
2023/12/26 08:56:28;;;;;;;33.67;30.17;;;;;;;8.88;59.61;95192.91;5136649;27;20187;-75
2023/12/26 08:58:56;;;;;;;34.10;30.50;;;;;;;9.01;58.83;95196.53;5135691;27;20213;-75
2023/12/26 09:01:24;;;;;;;34.38;30.98;;;;;;;9.12;58.44;95192.19;5135550;27;20222;-75
2023/12/26 09:03:51;;;;;;;37.40;32.45;;;;;;;9.27;58.21;95182.47;5136016;27;20191;-75
2023/12/26 09:06:18;;;;;;;33.78;30.25;;;;;;;9.42;57.82;95175.47;5133562;27;20287;-75
2023/12/26 09:08:46;;;;;;;39.70;35.50;;;;;;;9.56;58.08;95181.47;5136498;27;20194;-75
2023/12/26 09:11:14;;;;;;;38.05;33.97;;;;;;;9.69;57.76;95176.75;5136619;27;20230;-75
2023/12/26 09:13:41;;;;;;;36.10;32.35;;;;;;;9.82;57.27;95174.81;5135482;27;20212;-75
2023/12/26 09:16:13;;;;;;;34.60;30.90;;;;;;;10.01;56.66;95177.75;5135919;27;20185;-75
2023/12/26 09:18:46;;;;;;;28.70;25.60;;;;;;;10.13;55.36;95175.00;5135465;27;20617;-75
2023/12/26 09:21:14;;;;;;;26.80;24.00;;;;;;;10.24;54.83;95168.97;5135786;27;20549;-75
2023/12/26 09:23:44;;;;;;;25.33;22.80;;;;;;;10.42;54.57;95162.09;5135972;28;20195;-75
2023/12/26 09:26:14;;;;;;;22.75;20.30;;;;;;;10.57;53.35;95164.13;5135365;28;20191;-76
2023/12/26 09:28:44;;;;;;;22.88;20.48;;;;;;;10.87;52.98;95151.91;5135281;28;20195;-75
2023/12/26 09:31:16;;;;;;;22.73;20.30;;;;;;;11.15;51.74;95151.84;5136226;28;20183;-75
2023/12/26 09:33:45;;;;;;;22.17;19.77;;;;;;;11.47;50.51;95141.63;5135475;28;20191;-76
2023/12/26 09:36:16;;;;;;;23.25;20.42;;;;;;;11.66;50.04;95140.94;5135890;28;20586;-75
2023/12/26 09:38:46;;;;;;;26.60;22.40;;;;;;;12.03;49.56;95135.91;5136243;27;20187;-75
2023/12/26 09:41:14;;;;;;;25.73;21.92;;;;;;;12.29;48.56;95135.28;5136344;28;20246;-75
2023/12/26 09:43:45;;;;;;;24.08;21.65;;;;;;;12.52;47.38;95133.38;5136161;27;20179;-76
2023/12/26 09:46:15;;;;;;;24.60;20.45;;;;;;;12.87;46.34;95117.88;5135678;28;20203;-76
2023/12/26 09:48:45;;;;;;;22.10;19.95;;;;;;;13.14;45.20;95118.75;5118205;28;20199;-75
2023/12/26 09:51:21;;;;;;;22.48;20.13;;;;;;;13.30;44.87;95116.72;5135732;28;20612;-75
2023/12/26 09:53:48;;;;;;;20.20;18.10;;;;;;;13.74;43.73;95110.72;5135127;28;20203;-75
2023/12/26 09:56:16;;;;;;;20.02;17.88;;;;;;;13.94;43.68;95115.00;5135720;28;20667;-75
2023/12/26 09:58:44;;;;;;;19.85;17.85;;;;;;;14.33;42.59;95113.94;5136069;28;20195;-77
2023/12/26 10:01:13;;;;;;;19.45;17.00;;;;;;;14.42;42.20;95103.38;5136012;28;20224;-77
2023/12/26 10:03:42;;;;;;;18.05;16.20;;;;;;;14.58;41.92;95100.41;5136260;28;20175;-76
2023/12/26 10:06:12;;;;;;;18.00;15.05;;;;;;;14.69;41.37;95096.59;5134102;28;20235;-76
2023/12/26 10:08:40;;;;;;;17.23;15.05;;;;;;;14.79;41.11;95097.91;5136170;28;20200;-76
2023/12/26 10:11:08;;;;;;;16.27;14.52;;;;;;;14.75;41.03;95093.47;5134873;28;20289;-76
2023/12/26 10:13:45;;;;;;;19.40;14.73;;;;;;;14.78;40.37;95098.25;5135239;28;20192;-76
2023/12/26 10:16:14;;;;;;;17.98;16.08;;;;;;;14.73;40.27;95093.84;5135868;27;20277;-76
2023/12/26 10:18:42;;;;;;;16.42;14.70;;;;;;;14.70;40.52;95083.50;5135828;28;20237;-76
2023/12/26 10:21:09;;;;;;;18.15;16.05;;;;;;;14.59;41.21;95080.59;5135218;27;20280;-76
2023/12/26 10:23:38;;;;;;;17.75;15.77;;;;;;;14.20;40.33;95072.56;5135423;28;20607;-76
2023/12/26 10:26:06;;;;;;;20.58;18.45;;;;;;;13.78;41.27;95075.53;5135659;27;20191;-76
2023/12/26 10:28:41;;;;;;;18.67;16.67;;;;;;;13.35;41.78;95071.28;5138870;27;20207;-76
2023/12/26 10:31:19;;;;;;;20.20;17.75;;;;;;;12.98;42.96;95078.16;5138527;27;20244;-76
2023/12/26 10:33:49;;;;;;;21.80;19.48;;;;;;;12.67;43.19;95078.34;5139057;27;20194;-76
2023/12/26 10:36:18;;;;;;;20.33;18.20;;;;;;;12.47;44.77;95063.75;5138438;27;20207;-76
2023/12/26 10:38:47;;;;;;;20.70;17.60;;;;;;;12.33;44.93;95074.50;5138389;27;20199;-76
2023/12/26 10:41:23;;;;;;;20.75;16.60;;;;;;;12.20;45.17;95071.06;5138183;27;20207;-76
2023/12/26 10:43:52;;;;;;;16.13;14.43;;;;;;;12.03;45.74;95067.59;5138320;27;20198;-76
2023/12/26 10:46:21;;;;;;;18.42;16.40;;;;;;;11.93;45.91;95070.91;5138312;27;20199;-76
2023/12/26 10:48:53;;;;;;;18.90;16.65;;;;;;;11.87;46.27;95060.50;5138881;27;20215;-76
2023/12/26 10:51:26;;;;;;;18.60;16.65;;;;;;;11.82;46.52;95059.59;5138437;27;20198;-76
2023/12/26 10:53:57;;;;;;;18.27;15.73;;;;;;;11.85;45.96;95049.03;5138363;27;20286;-76
2023/12/26 10:56:25;;;;;;;18.67;16.77;;;;;;;11.76;46.16;95052.75;5139293;27;20188;-76
2023/12/26 10:58:56;;;;;;;14.20;12.90;;;;;;;11.69;45.77;95049.00;5138639;27;20626;-76
2023/12/26 13:53:27;;;;;;;10.73;9.40;;;;;;;13.89;38.21;94876.88;5177718;27;20165;-76
2023/12/26 13:56:32;;;;;;;11.15;8.55;;;;;;;13.82;38.39;94879.56;5177581;27;20189;-76
2023/12/26 13:59:41;;;;;;;13.20;9.88;;;;;;;13.75;38.46;94873.94;5159221;27;20201;-76
2023/12/26 14:02:48;;;;;;;12.18;9.60;;;;;;;13.72;38.99;94877.44;5179742;27;20202;-76
2023/12/26 14:05:53;;;;;;;13.15;9.35;;;;;;;13.66;38.89;94868.69;5181218;27;20262;-76
2023/12/26 14:08:58;;;;;;;12.00;9.52;;;;;;;13.58;39.36;94861.47;5181123;27;20321;-76
2023/12/26 14:12:02;;;;;;;10.13;9.05;;;;;;;13.45;39.75;94866.44;5163183;27;20215;-76
2023/12/26 14:15:07;;;;;;;12.60;9.85;;;;;;;13.34;40.65;94867.47;5163061;27;20194;-76
2023/12/26 14:18:11;;;;;;;10.45;9.30;;;;;;;13.18;40.72;94871.22;5181659;27;20201;-76
2023/12/26 14:21:16;;;;;;;11.55;9.00;;;;;;;13.04;41.69;94856.38;5163132;27;20205;-76
2023/12/26 14:24:20;;;;;;;12.52;9.50;;;;;;;12.88;41.02;94876.69;5180987;27;20515;-76
2023/12/26 14:27:26;;;;;;;12.45;8.00;;;;;;;12.91;40.51;94873.16;5180861;27;20194;-76
2023/12/26 14:30:32;;;;;;;17.05;9.93;;;;;;;12.91;40.44;94877.91;5181032;27;20205;-76
2023/12/26 14:33:36;;;;;;;11.88;8.93;;;;;;;12.87;40.03;94874.28;5163543;27;20597;-76